Time;durP1;ratioP1;P1;durP2;ratioP2;P2;SDS_P1;SDS_P2;PMS_P1;PMS_P2;Temp;Humidity;BMP_temperature;BMP_pressure;BME280_temperature;BME280_humidity;BME280_pressure;Samples;Min_cycle;Max_cycle;Signal;HPM_P1;HPM_P2
2022/07/24 00:01:59;;;;;;;6.32;3.95;;;20.10;56.70;;;;;;4975439;28;20042;-68
2022/07/24 00:04:25;;;;;;;4.43;3.65;;;20.10;56.80;;;;;;4966840;28;20582;-70
2022/07/24 00:06:51;;;;;;;4.03;3.28;;;20.10;56.80;;;;;;4970003;28;20044;-69
2022/07/24 00:09:16;;;;;;;3.83;3.53;;;20.00;56.90;;;;;;4974250;28;20034;-69
2022/07/24 00:11:42;;;;;;;7.45;3.85;;;20.10;57.00;;;;;;4963852;28;20038;-68
2022/07/24 00:14:08;;;;;;;4.28;3.88;;;20.00;57.00;;;;;;4962350;28;21481;-68
2022/07/24 00:16:34;;;;;;;4.43;3.92;;;20.00;57.20;;;;;;4959387;28;20073;-68
2022/07/24 00:18:59;;;;;;;4.50;3.67;;;20.00;57.30;;;;;;4951576;28;20042;-68
2022/07/24 00:21:25;;;;;;;4.72;4.10;;;20.00;58.10;;;;;;4979671;28;20033;-68
2022/07/24 00:23:50;;;;;;;7.03;3.90;;;19.90;57.50;;;;;;4971157;28;20105;-69
2022/07/24 00:26:16;;;;;;;5.30;3.45;;;19.90;57.60;;;;;;4956084;28;20069;-69
2022/07/24 00:28:41;;;;;;;4.22;3.83;;;19.90;57.80;;;;;;4989284;28;20071;-68
2022/07/24 00:31:07;;;;;;;6.97;4.03;;;19.90;57.80;;;;;;4978272;28;20042;-70
2022/07/24 00:33:32;;;;;;;5.20;3.92;;;19.90;57.80;;;;;;4962320;28;20034;-69
2022/07/24 00:35:58;;;;;;;5.70;3.88;;;19.80;57.70;;;;;;4977058;28;20042;-68
2022/07/24 00:38:23;;;;;;;6.15;3.95;;;19.90;57.90;;;;;;4968858;28;20112;-67
2022/07/24 00:40:49;;;;;;;4.45;3.67;;;19.90;58.00;;;;;;4956959;28;20715;-70
2022/07/24 00:43:16;;;;;;;5.82;3.97;;;19.90;58.00;;;;;;4954644;28;20046;-68
2022/07/24 00:45:42;;;;;;;3.72;3.42;;;19.90;58.00;;;;;;4989504;28;20121;-68
2022/07/24 00:48:07;;;;;;;6.32;3.88;;;19.90;58.20;;;;;;4960440;28;20117;-70
2022/07/24 00:50:33;;;;;;;4.05;3.45;;;19.90;58.20;;;;;;4955584;28;20046;-69
2022/07/24 00:52:58;;;;;;;4.25;3.63;;;19.80;58.10;;;;;;4938968;28;20066;-68
2022/07/24 00:55:24;;;;;;;4.95;3.80;;;19.80;58.30;;;;;;4938097;28;20070;-69
2022/07/24 00:57:50;;;;;;;5.22;3.97;;;19.80;58.20;;;;;;4949623;28;20125;-70
2022/07/24 01:00:16;;;;;;;5.88;3.72;;;19.80;58.40;;;;;;4945275;28;20050;-68
2022/07/24 01:02:42;;;;;;;5.93;3.88;;;19.80;58.50;;;;;;4926635;28;20046;-69
2022/07/24 01:05:09;;;;;;;4.25;3.63;;;19.80;58.60;;;;;;4958261;28;20042;-68
2022/07/24 01:07:34;;;;;;;5.47;3.75;;;19.70;58.60;;;;;;4965717;28;20078;-69
2022/07/24 01:10:00;;;;;;;3.75;3.38;;;19.70;58.50;;;;;;4969616;28;20123;-67
2022/07/24 01:12:26;;;;;;;5.07;4.13;;;19.70;58.60;;;;;;4970374;28;20046;-68
2022/07/24 01:14:52;;;;;;;4.18;3.78;;;19.70;58.70;;;;;;4968497;28;20121;-68
2022/07/24 01:17:18;;;;;;;4.18;3.72;;;19.70;58.80;;;;;;4966028;28;20512;-68
2022/07/24 01:19:43;;;;;;;4.40;4.00;;;19.70;58.80;;;;;;4945601;28;20503;-68
2022/07/24 01:22:09;;;;;;;5.07;4.05;;;19.70;58.80;;;;;;4938993;28;20034;-69
2022/07/24 01:24:34;;;;;;;4.97;3.53;;;19.70;58.90;;;;;;4951983;28;20222;-67
2022/07/24 01:27:00;;;;;;;4.30;3.65;;;19.70;59.00;;;;;;4939064;28;20039;-68
2022/07/24 01:29:25;;;;;;;3.95;3.58;;;19.70;59.00;;;;;;4950268;28;20032;-69
2022/07/24 01:31:51;;;;;;;4.35;3.60;;;19.70;59.00;;;;;;4968341;28;20097;-69
2022/07/24 01:34:16;;;;;;;4.72;3.88;;;19.60;58.90;;;;;;4932895;28;20046;-69
2022/07/24 01:36:42;;;;;;;6.22;4.47;;;19.60;59.00;;;;;;4952738;28;20043;-69
2022/07/24 01:39:08;;;;;;;6.35;4.40;;;19.60;59.00;;;;;;4967238;28;20817;-68
2022/07/24 01:41:33;;;;;;;4.82;4.18;;;19.60;59.10;;;;;;4941053;28;20037;-70
2022/07/24 01:43:59;;;;;;;7.07;3.83;;;19.60;59.20;;;;;;4955507;28;20038;-69
2022/07/24 01:46:24;;;;;;;8.27;3.92;;;19.50;59.40;;;;;;4930810;28;20039;-69
2022/07/24 01:48:50;;;;;;;6.63;3.85;;;19.50;59.40;;;;;;4937845;28;20046;-70
2022/07/24 01:51:15;;;;;;;5.43;3.85;;;19.50;59.50;;;;;;4938531;28;20043;-70
2022/07/24 01:53:41;;;;;;;4.85;3.90;;;19.50;59.60;;;;;;4943346;28;20030;-69
2022/07/24 01:56:07;;;;;;;4.40;3.95;;;19.40;59.70;;;;;;4958548;28;20071;-70
2022/07/24 01:58:32;;;;;;;3.45;3.15;;;19.40;59.80;;;;;;4967928;28;20094;-69
2022/07/24 02:00:58;;;;;;;4.70;4.03;;;19.40;59.80;;;;;;4942464;28;20081;-68
2022/07/24 02:03:23;;;;;;;4.05;3.55;;;19.30;59.80;;;;;;4942739;28;20780;-70
2022/07/24 02:05:49;;;;;;;4.07;3.42;;;19.30;60.00;;;;;;4948316;28;20034;-69
2022/07/24 02:08:14;;;;;;;4.68;4.07;;;19.20;59.90;;;;;;4955810;28;20031;-70
2022/07/24 02:10:40;;;;;;;4.53;3.60;;;19.30;60.00;;;;;;4961443;28;20038;-68
2022/07/24 02:13:05;;;;;;;4.53;3.80;;;19.20;60.10;;;;;;4953469;28;20047;-69
2022/07/24 02:15:31;;;;;;;6.50;4.15;;;19.20;60.30;;;;;;4928465;28;20046;-69
2022/07/24 02:17:58;;;;;;;8.20;3.80;;;19.20;60.30;;;;;;4937576;28;20035;-68
2022/07/24 02:20:24;;;;;;;4.55;3.45;;;19.20;60.40;;;;;;4948170;28;20762;-69
2022/07/24 02:22:49;;;;;;;4.38;3.72;;;19.10;61.20;;;;;;4935101;28;20043;-69
2022/07/24 02:25:15;;;;;;;4.85;3.65;;;19.10;60.40;;;;;;4937936;28;21708;-69
2022/07/24 02:27:40;;;;;;;6.22;4.03;;;19.10;60.50;;;;;;4948714;28;20039;-70
2022/07/24 02:30:08;;;;;;;5.55;3.63;;;19.10;60.60;;;;;;4947713;28;20045;-70
2022/07/24 02:32:34;;;;;;;4.28;3.78;;;19.10;60.80;;;;;;4958802;28;20130;-70
2022/07/24 02:34:59;;;;;;;5.90;4.07;;;19.00;60.80;;;;;;4945170;28;20122;-70
2022/07/24 02:37:25;;;;;;;4.30;3.72;;;19.00;61.00;;;;;;4933344;28;20461;-71
2022/07/24 02:39:50;;;;;;;6.80;4.20;;;19.00;61.10;;;;;;4930390;28;20149;-70
2022/07/24 02:42:16;;;;;;;4.72;3.75;;;19.00;61.20;;;;;;4960052;28;20062;-69
2022/07/24 02:44:41;;;;;;;4.03;3.60;;;19.00;61.40;;;;;;4949137;28;20062;-70
2022/07/24 02:47:07;;;;;;;4.35;3.80;;;18.90;61.50;;;;;;4937491;28;20094;-69
2022/07/24 02:49:32;;;;;;;5.60;3.97;;;18.90;61.40;;;;;;4950709;28;20050;-70
2022/07/24 02:51:58;;;;;;;4.10;3.70;;;18.80;61.40;;;;;;4940041;28;20130;-69
2022/07/24 02:54:23;;;;;;;5.03;4.00;;;18.90;61.50;;;;;;4936417;28;20043;-69
2022/07/24 02:56:49;;;;;;;5.90;3.63;;;18.90;61.60;;;;;;4945432;28;20046;-69
2022/07/24 02:59:14;;;;;;;7.20;3.90;;;18.90;61.60;;;;;;4949545;28;20039;-69
2022/07/24 03:01:40;;;;;;;4.05;3.72;;;18.80;61.50;;;;;;4957372;28;20038;-70
2022/07/24 03:04:06;;;;;;;6.20;3.58;;;18.80;61.70;;;;;;4930623;28;20043;-69
2022/07/24 03:06:31;;;;;;;5.13;3.60;;;18.80;62.00;;;;;;4942094;28;20043;-69
2022/07/24 03:08:57;;;;;;;3.60;3.30;;;18.80;62.00;;;;;;4965987;28;20556;-70
2022/07/24 03:11:22;;;;;;;3.92;3.63;;;18.70;61.90;;;;;;4943226;28;20142;-69
2022/07/24 03:13:48;;;;;;;4.00;3.63;;;18.70;61.90;;;;;;4943944;28;20047;-70
2022/07/24 03:16:14;;;;;;;7.70;4.10;;;18.70;62.00;;;;;;4947464;28;20106;-68
2022/07/24 03:18:41;;;;;;;6.03;3.97;;;18.60;62.10;;;;;;4962440;28;20042;-68
2022/07/24 03:21:06;;;;;;;4.32;3.90;;;18.60;62.10;;;;;;4954944;28;20034;-68
2022/07/24 03:23:32;;;;;;;6.63;3.63;;;18.60;62.10;;;;;;4958353;28;20034;-70
2022/07/24 03:25:57;;;;;;;3.97;3.58;;;18.60;62.20;;;;;;4938293;28;20528;-69
2022/07/24 03:28:23;;;;;;;4.88;3.70;;;18.50;62.30;;;;;;4943141;28;20793;-71
2022/07/24 03:30:48;;;;;;;7.32;3.65;;;18.50;62.40;;;;;;4965360;28;20034;-69
2022/07/24 03:33:14;;;;;;;4.90;3.70;;;18.50;62.40;;;;;;4950761;28;20038;-69
2022/07/24 03:35:39;;;;;;;5.70;4.03;;;18.50;62.50;;;;;;4945322;28;20035;-69
2022/07/24 03:38:05;;;;;;;5.70;4.07;;;18.50;62.60;;;;;;4936711;28;20101;-68
2022/07/24 03:40:30;;;;;;;4.47;3.20;;;18.50;62.90;;;;;;4966606;28;20039;-68
2022/07/24 03:42:56;;;;;;;4.95;4.07;;;18.40;63.00;;;;;;4958485;28;20093;-67
2022/07/24 03:45:21;;;;;;;5.05;3.72;;;18.40;63.10;;;;;;4948695;28;20042;-68
2022/07/24 03:47:47;;;;;;;5.22;4.07;;;18.40;63.00;;;;;;4941021;28;20039;-68
2022/07/24 03:50:12;;;;;;;4.60;3.83;;;18.40;63.00;;;;;;4955064;28;20035;-68
2022/07/24 03:52:38;;;;;;;3.78;3.33;;;18.40;63.10;;;;;;4935523;28;20046;-69
2022/07/24 03:55:04;;;;;;;5.65;3.47;;;18.40;63.20;;;;;;4945228;28;20054;-69
2022/07/24 03:57:30;;;;;;;4.93;3.58;;;18.30;63.20;;;;;;4960244;28;20035;-70
2022/07/24 03:59:55;;;;;;;6.43;3.35;;;18.30;63.20;;;;;;4975526;28;20054;-69
2022/07/24 04:02:21;;;;;;;4.13;3.67;;;18.30;63.30;;;;;;4958096;28;20535;-69
2022/07/24 04:04:46;;;;;;;5.97;3.45;;;18.30;63.30;;;;;;4966136;28;20034;-68
2022/07/24 04:07:12;;;;;;;3.80;3.42;;;18.30;63.20;;;;;;4952515;28;20694;-68
2022/07/24 04:09:37;;;;;;;7.05;3.95;;;18.30;63.40;;;;;;4975440;28;20182;-68
2022/07/24 04:12:03;;;;;;;3.22;2.90;;;18.30;63.40;;;;;;4966658;28;20072;-68
2022/07/24 04:14:28;;;;;;;5.20;3.97;;;18.30;63.40;;;;;;4952898;28;20093;-68
2022/07/24 04:16:54;;;;;;;8.02;4.20;;;18.30;63.70;;;;;;4987383;28;20046;-68
2022/07/24 04:19:20;;;;;;;5.00;3.38;;;18.30;63.80;;;;;;4975698;28;20052;-69
2022/07/24 04:21:45;;;;;;;5.63;3.60;;;18.20;63.80;;;;;;4961720;28;20879;-69
2022/07/24 04:24:11;;;;;;;4.63;3.72;;;18.20;64.00;;;;;;4959009;28;20031;-68
2022/07/24 04:26:36;;;;;;;3.75;3.45;;;18.20;64.00;;;;;;4977007;28;20041;-68
2022/07/24 04:29:02;;;;;;;6.03;3.70;;;18.20;64.10;;;;;;4963551;28;20038;-68
2022/07/24 04:31:27;;;;;;;4.50;4.05;;;18.20;64.10;;;;;;4980296;28;20036;-68
2022/07/24 04:33:53;;;;;;;4.43;3.35;;;18.20;64.10;;;;;;4973480;28;20028;-69
2022/07/24 04:36:18;;;;;;;3.85;3.50;;;18.20;64.10;;;;;;4961031;28;20113;-69
2022/07/24 04:38:44;;;;;;;4.32;3.67;;;18.20;64.00;;;;;;4990841;28;20125;-70
2022/07/24 04:41:09;;;;;;;4.03;3.60;;;18.30;64.00;;;;;;4964469;28;20045;-69
2022/07/24 04:43:35;;;;;;;4.90;3.50;;;18.30;64.00;;;;;;4968255;28;20118;-68
2022/07/24 04:46:00;;;;;;;4.05;3.42;;;18.30;64.00;;;;;;4979318;28;20126;-68
2022/07/24 04:48:26;;;;;;;3.88;3.47;;;18.30;64.10;;;;;;4956188;28;20089;-69
2022/07/24 04:50:52;;;;;;;3.65;3.33;;;18.30;64.20;;;;;;4943673;28;20038;-70
2022/07/24 04:53:17;;;;;;;4.28;3.88;;;18.30;64.10;;;;;;4984291;28;20050;-69
2022/07/24 04:55:43;;;;;;;4.88;3.55;;;18.30;64.20;;;;;;4956288;28;20084;-71
2022/07/24 04:58:08;;;;;;;4.40;3.53;;;18.40;64.30;;;;;;4962892;28;20043;-70
2022/07/24 05:00:34;;;;;;;4.05;3.65;;;18.30;64.40;;;;;;4958388;28;20500;-69
2022/07/24 05:02:59;;;;;;;3.95;3.20;;;18.40;64.50;;;;;;4952559;28;20142;-69
2022/07/24 05:05:25;;;;;;;4.90;3.40;;;18.40;64.50;;;;;;4986526;28;20043;-70
2022/07/24 05:07:50;;;;;;;3.85;3.45;;;18.40;64.40;;;;;;4983097;28;20035;-70
2022/07/24 05:10:16;;;;;;;5.47;4.70;;;18.40;64.40;;;;;;4957857;28;20038;-70
2022/07/24 05:12:42;;;;;;;5.78;4.13;;;18.50;64.50;;;;;;4987030;28;20044;-69
2022/07/24 05:15:08;;;;;;;6.13;3.88;;;18.50;64.50;;;;;;4963117;28;20135;-70
2022/07/24 05:17:35;;;;;;;4.90;4.05;;;18.50;64.50;;;;;;4970455;28;20122;-68
2022/07/24 05:20:01;;;;;;;4.43;3.20;;;18.50;64.70;;;;;;4947599;28;20039;-68
2022/07/24 05:22:27;;;;;;;6.18;3.83;;;18.50;64.60;;;;;;4950833;28;20045;-69
2022/07/24 05:24:52;;;;;;;4.22;3.83;;;18.60;64.40;;;;;;4946082;28;20073;-69
2022/07/24 05:27:18;;;;;;;3.65;3.25;;;18.60;64.20;;;;;;4971148;28;20118;-69
2022/07/24 05:29:43;;;;;;;4.13;3.58;;;18.70;64.10;;;;;;4951666;28;20035;-69
2022/07/24 05:32:09;;;;;;;3.72;3.40;;;18.70;63.90;;;;;;4987527;28;20125;-69
2022/07/24 05:34:34;;;;;;;4.90;4.35;;;18.80;63.90;;;;;;4950610;28;20069;-69
2022/07/24 05:37:00;;;;;;;4.47;3.47;;;18.80;63.90;;;;;;4933424;28;20045;-68
2022/07/24 05:39:26;;;;;;;5.10;3.75;;;18.90;64.00;;;;;;4971834;28;20031;-68
2022/07/24 05:41:51;;;;;;;6.82;3.50;;;18.90;63.90;;;;;;4971192;28;20034;-70
2022/07/24 05:44:17;;;;;;;5.20;4.22;;;19.00;63.80;;;;;;4967890;28;20041;-69
2022/07/24 05:46:42;;;;;;;11.88;4.30;;;19.00;63.70;;;;;;4964606;28;20035;-68
2022/07/24 05:49:08;;;;;;;4.45;4.05;;;19.10;63.70;;;;;;4958102;28;20059;-70
2022/07/24 05:51:33;;;;;;;4.97;3.90;;;19.20;63.90;;;;;;4959913;28;20110;-69
2022/07/24 05:53:59;;;;;;;4.10;3.65;;;19.20;63.90;;;;;;4962938;28;20126;-69
2022/07/24 05:56:24;;;;;;;6.20;4.00;;;19.30;64.00;;;;;;4938230;28;20078;-68
2022/07/24 05:58:50;;;;;;;4.38;3.97;;;19.40;63.90;;;;;;4959503;28;20121;-69
2022/07/24 06:01:15;;;;;;;3.97;3.17;;;19.40;63.90;;;;;;4939363;28;20516;-68
2022/07/24 06:03:41;;;;;;;4.45;3.38;;;19.50;63.80;;;;;;4954189;28;20462;-69
2022/07/24 06:06:07;;;;;;;4.20;3.20;;;19.60;63.70;;;;;;4945854;28;20466;-69
2022/07/24 06:08:32;;;;;;;5.53;3.35;;;19.70;63.50;;;;;;4941699;28;20038;-70
2022/07/24 06:10:58;;;;;;;6.28;3.88;;;19.70;63.40;;;;;;4937670;28;20036;-69
2022/07/24 06:13:23;;;;;;;4.68;3.55;;;19.80;63.20;;;;;;4970733;28;20508;-69
2022/07/24 06:15:49;;;;;;;8.88;3.50;;;19.90;63.20;;;;;;4960679;28;20690;-70
2022/07/24 06:18:14;;;;;;;3.70;3.40;;;20.00;63.00;;;;;;4939369;28;20589;-68
2022/07/24 06:20:40;;;;;;;4.75;3.10;;;20.10;62.80;;;;;;4973754;28;20050;-69
2022/07/24 06:23:06;;;;;;;4.18;2.97;;;20.10;62.50;;;;;;4946136;28;20069;-69
2022/07/24 06:25:31;;;;;;;6.90;3.80;;;20.20;62.20;;;;;;4943836;28;20408;-69
2022/07/24 06:27:57;;;;;;;3.83;3.40;;;20.30;61.90;;;;;;4946149;28;20043;-70
2022/07/24 06:30:26;;;;;;;3.10;2.80;;;20.40;61.60;;;;;;4964214;28;20058;-70
2022/07/24 06:32:56;;;;;;;6.40;3.10;;;20.50;61.40;;;;;;4954933;28;20073;-70
2022/07/24 06:35:22;;;;;;;3.10;2.83;;;20.60;61.10;;;;;;4964986;28;20056;-70
2022/07/24 06:37:47;;;;;;;5.75;3.38;;;20.80;60.80;;;;;;4981378;28;20114;-70
2022/07/24 06:40:13;;;;;;;3.42;3.13;;;20.80;60.40;;;;;;4959670;28;20522;-68
2022/07/24 06:42:39;;;;;;;3.63;2.70;;;21.00;60.20;;;;;;4930937;28;20118;-69
2022/07/24 06:45:05;;;;;;;3.72;3.20;;;21.10;60.00;;;;;;4943030;28;20051;-70
2022/07/24 06:47:31;;;;;;;6.95;3.85;;;21.20;59.80;;;;;;4966760;28;20043;-69
2022/07/24 06:49:56;;;;;;;4.82;3.33;;;21.30;59.70;;;;;;4955296;28;20045;-69
2022/07/24 06:52:22;;;;;;;7.18;3.58;;;21.40;60.10;;;;;;4965893;28;20050;-70
2022/07/24 06:54:47;;;;;;;4.32;3.42;;;21.60;59.30;;;;;;4986709;28;20141;-69
2022/07/24 06:57:13;;;;;;;4.05;3.10;;;21.70;59.00;;;;;;4965751;28;20119;-69
2022/07/24 06:59:39;;;;;;;4.75;2.95;;;21.80;58.80;;;;;;4948482;28;20419;-68
2022/07/24 07:02:05;;;;;;;3.38;3.08;;;22.00;58.60;;;;;;4969345;28;20855;-69
2022/07/24 07:04:30;;;;;;;4.90;3.10;;;22.10;58.30;;;;;;4960076;28;20042;-69
2022/07/24 07:06:56;;;;;;;3.40;3.10;;;22.20;58.10;;;;;;4940553;28;20037;-71
2022/07/24 07:09:21;;;;;;;4.63;3.00;;;22.30;57.90;;;;;;4953312;28;20043;-71
2022/07/24 07:11:47;;;;;;;3.88;3.25;;;22.40;57.60;;;;;;4932987;28;20125;-71
2022/07/24 07:14:13;;;;;;;4.38;3.60;;;22.60;57.40;;;;;;4933176;28;20054;-72
2022/07/24 07:16:38;;;;;;;3.53;3.20;;;22.70;57.20;;;;;;4944466;28;20034;-70
2022/07/24 07:19:04;;;;;;;8.77;3.28;;;22.80;57.00;;;;;;4955560;28;20039;-70
2022/07/24 07:21:29;;;;;;;3.83;3.40;;;22.90;56.70;;;;;;4977290;28;20039;-72
2022/07/24 07:23:55;;;;;;;4.35;3.00;;;23.10;56.50;;;;;;4986764;28;20423;-72
2022/07/24 07:26:20;;;;;;;4.90;3.03;;;23.20;56.30;;;;;;4941245;28;20030;-71
2022/07/24 07:28:46;;;;;;;5.82;3.22;;;23.40;56.10;;;;;;4976001;28;20078;-71
2022/07/24 07:31:12;;;;;;;3.08;2.78;;;23.50;55.80;;;;;;4954432;28;20114;-71
2022/07/24 07:33:37;;;;;;;5.47;3.28;;;23.60;55.60;;;;;;4947270;28;20026;-70
2022/07/24 07:36:03;;;;;;;3.95;3.20;;;23.80;55.40;;;;;;4960113;28;20037;-71
2022/07/24 07:38:28;;;;;;;3.80;3.25;;;23.90;55.10;;;;;;4972074;28;20047;-71
2022/07/24 07:40:54;;;;;;;3.42;3.13;;;24.10;54.90;;;;;;4968362;28;20041;-71
2022/07/24 07:43:19;;;;;;;3.63;3.08;;;24.20;54.50;;;;;;4974344;28;20038;-70
2022/07/24 07:45:45;;;;;;;4.18;3.60;;;24.40;54.30;;;;;;4982869;28;20034;-70
2022/07/24 07:48:10;;;;;;;4.25;3.63;;;24.50;54.10;;;;;;4954485;28;20035;-70
2022/07/24 07:50:36;;;;;;;7.20;3.97;;;24.70;53.80;;;;;;4963166;28;20057;-70
2022/07/24 07:53:01;;;;;;;4.30;3.65;;;24.90;53.50;;;;;;4956986;28;20419;-72
2022/07/24 07:55:27;;;;;;;3.90;3.60;;;25.00;53.10;;;;;;4959669;28;20537;-71
2022/07/24 07:57:53;;;;;;;4.20;3.50;;;25.10;52.90;;;;;;4953783;28;20653;-70
2022/07/24 08:00:19;;;;;;;4.07;3.65;;;25.20;52.70;;;;;;4966829;28;20483;-70
2022/07/24 08:02:44;;;;;;;4.63;3.70;;;25.40;52.60;;;;;;4980321;28;20043;-70
2022/07/24 08:05:10;;;;;;;6.13;4.15;;;25.60;52.30;;;;;;4963532;28;20055;-70
2022/07/24 08:07:36;;;;;;;7.28;4.47;;;25.80;52.10;;;;;;4971399;28;20886;-70
2022/07/24 08:10:01;;;;;;;4.68;4.28;;;26.00;52.00;;;;;;4967893;28;20038;-69
2022/07/24 08:12:27;;;;;;;5.28;4.72;;;26.10;51.80;;;;;;4956561;28;20038;-71
2022/07/24 08:14:52;;;;;;;5.00;4.28;;;26.30;51.50;;;;;;4989395;28;20035;-70
2022/07/24 08:17:18;;;;;;;4.90;4.50;;;26.50;51.30;;;;;;4977352;28;20469;-71
2022/07/24 08:19:45;;;;;;;5.07;4.13;;;26.60;51.20;;;;;;4975892;28;20466;-70
2022/07/24 08:22:11;;;;;;;5.15;4.30;;;26.90;51.00;;;;;;4944010;28;20065;-71
2022/07/24 08:24:36;;;;;;;6.05;4.10;;;27.00;50.50;;;;;;4974661;28;20040;-70
2022/07/24 08:27:02;;;;;;;4.82;4.35;;;27.20;50.20;;;;;;4958276;28;20149;-71
2022/07/24 08:29:28;;;;;;;5.57;4.38;;;27.30;49.90;;;;;;4967377;28;20091;-70
2022/07/24 08:31:53;;;;;;;4.93;4.43;;;27.50;49.70;;;;;;4957586;28;20046;-70
2022/07/24 08:34:19;;;;;;;5.72;4.82;;;27.70;49.50;;;;;;4963569;28;20038;-71
2022/07/24 08:36:45;;;;;;;4.70;4.28;;;28.00;49.40;;;;;;4959420;28;20038;-70
2022/07/24 08:39:14;;;;;;;13.77;4.00;;;28.20;49.00;;;;;;4959395;28;20708;-70
2022/07/24 08:41:40;;;;;;;4.57;3.70;;;28.40;48.60;;;;;;4955945;28;20586;-70
2022/07/24 08:44:06;;;;;;;5.65;4.03;;;28.60;48.30;;;;;;4956779;28;20178;-70
2022/07/24 08:46:32;;;;;;;3.67;3.38;;;28.80;47.80;;;;;;4981603;28;20088;-70
2022/07/24 08:48:58;;;;;;;4.75;4.20;;;28.80;47.30;;;;;;4976747;28;20511;-70
2022/07/24 08:51:26;;;;;;;6.25;4.50;;;29.00;47.10;;;;;;4971348;28;20054;-71
2022/07/24 08:53:53;;;;;;;5.85;4.10;;;29.10;46.90;;;;;;4984367;28;20065;-70
2022/07/24 08:56:19;;;;;;;3.72;3.42;;;29.30;46.60;;;;;;4983356;28;20126;-71
2022/07/24 08:58:44;;;;;;;5.03;4.07;;;29.50;46.60;;;;;;4975052;28;20031;-71
2022/07/24 09:01:10;;;;;;;7.03;4.85;;;29.60;46.30;;;;;;4950751;28;20025;-71
2022/07/24 09:03:43;;;;;;;4.47;3.90;;;29.80;45.80;;;;;;4931115;28;20044;-70
2022/07/24 09:06:10;;;;;;;5.75;4.20;;;30.00;45.30;;;;;;4967446;28;20030;-70
2022/07/24 09:08:36;;;;;;;5.68;4.20;;;30.20;45.30;;;;;;4964358;28;20042;-71
2022/07/24 09:11:05;;;;;;;3.83;3.53;;;30.40;44.90;;;;;;4948049;28;20561;-70
2022/07/24 09:16:24;;;;;;;3.92;3.50;;;30.70;44.30;;;;;;4982362;28;20136;-70
2022/07/24 09:18:50;;;;;;;4.50;3.85;;;30.90;43.50;;;;;;4966988;28;20057;-70
2022/07/24 09:21:17;;;;;;;4.03;3.70;;;31.10;43.40;;;;;;4944015;28;20051;-71
2022/07/24 09:23:42;;;;;;;5.53;3.60;;;31.40;43.20;;;;;;4956679;28;20035;-70
2022/07/24 09:26:08;;;;;;;4.55;4.10;;;31.60;42.60;;;;;;4960494;28;20045;-70
2022/07/24 09:28:52;;;;;;;4.80;3.63;;;31.70;42.00;;;;;;4944133;28;20065;-71
2022/07/24 09:31:18;;;;;;;4.20;3.90;;;31.80;40.50;;;;;;4972741;28;20087;-72
2022/07/24 09:33:44;;;;;;;3.90;3.50;;;31.90;41.30;;;;;;4952049;28;20058;-70
2022/07/24 09:36:13;;;;;;;4.68;4.22;;;32.00;41.00;;;;;;4946531;28;20038;-71
2022/07/24 09:38:43;;;;;;;3.85;3.55;;;32.20;40.60;;;;;;4966259;28;20113;-70
2022/07/24 09:41:09;;;;;;;3.90;3.60;;;32.50;40.70;;;;;;4946723;28;20030;-72
2022/07/24 09:43:36;;;;;;;5.07;3.58;;;32.70;40.40;;;;;;4966660;28;20835;-71
2022/07/24 09:46:06;;;;;;;5.72;3.75;;;32.90;40.00;;;;;;4964457;28;20037;-71
2022/07/24 09:48:33;;;;;;;3.60;3.30;;;33.20;39.90;;;;;;4958020;28;20050;-71
2022/07/24 09:51:04;;;;;;;4.05;3.75;;;33.40;39.60;;;;;;4977297;28;20043;-71
2022/07/24 09:53:31;;;;;;;4.15;3.53;;;33.50;39.00;;;;;;4954383;28;20034;-71
2022/07/24 09:56:07;;;;;;;4.15;3.47;;;33.70;38.90;;;;;;4973450;28;20062;-70
2022/07/24 09:58:34;;;;;;;5.28;3.55;;;33.90;38.50;;;;;;4981382;28;20040;-71
2022/07/24 10:01:00;;;;;;;5.90;4.22;;;34.00;38.30;;;;;;4978638;28;20044;-71
2022/07/24 10:03:38;;;;;;;3.80;3.50;;;34.20;38.10;;;;;;4928846;28;20571;-73
2022/07/24 10:06:07;;;;;;;5.22;4.03;;;34.30;37.30;;;;;;4951111;28;20051;-72
2022/07/24 10:08:36;;;;;;;4.20;3.80;;;34.40;37.30;;;;;;4958482;28;20035;-71
2022/07/24 10:11:02;;;;;;;6.45;3.63;;;34.50;37.20;;;;;;4983011;28;20034;-71
2022/07/24 10:13:28;;;;;;;7.32;3.63;;;34.60;37.10;;;;;;4957118;28;20046;-73
2022/07/24 10:16:08;;;;;;;4.20;3.80;;;34.70;37.00;;;;;;4963627;28;20096;-71
2022/07/24 10:18:53;;;;;;;6.25;4.18;;;34.90;36.90;;;;;;4962530;28;20143;-71
2022/07/24 10:21:20;;;;;;;3.78;3.47;;;35.00;36.00;;;;;;4984399;28;20162;-71
2022/07/24 10:23:48;;;;;;;4.30;3.78;;;35.10;36.50;;;;;;4969071;28;20045;-71
2022/07/24 10:26:16;;;;;;;6.25;3.97;;;35.30;36.30;;;;;;4966103;28;20033;-71
2022/07/24 10:28:43;;;;;;;5.28;4.00;;;35.50;36.00;;;;;;4954996;28;20531;-72
2022/07/24 10:31:10;;;;;;;4.65;3.83;;;35.70;35.70;;;;;;4967147;28;20044;-72
2022/07/24 10:33:36;;;;;;;4.72;4.22;;;35.80;35.40;;;;;;4973900;28;20109;-71
2022/07/24 10:36:03;;;;;;;4.60;3.88;;;35.90;35.00;;;;;;4964098;28;20058;-72
2022/07/24 10:38:37;;;;;;;7.25;4.47;;;36.00;34.80;;;;;;4974460;28;20047;-72
2022/07/24 10:41:13;;;;;;;4.57;4.00;;;36.00;34.00;;;;;;4972016;28;20227;-71
2022/07/24 10:43:38;;;;;;;4.63;4.07;;;36.00;34.30;;;;;;4977864;28;20031;-71
2022/07/24 10:46:04;;;;;;;4.32;3.92;;;36.00;34.20;;;;;;4960514;28;20046;-72
2022/07/24 10:48:31;;;;;;;4.65;4.25;;;36.00;34.00;;;;;;4963683;28;20541;-71
2022/07/24 10:50:57;;;;;;;4.82;4.43;;;36.00;33.90;;;;;;4933572;28;20568;-71
2022/07/24 10:53:23;;;;;;;4.90;4.00;;;36.00;33.80;;;;;;4971655;28;20050;-71
2022/07/24 10:55:49;;;;;;;4.88;4.28;;;36.00;33.40;;;;;;4983616;28;20134;-71
2022/07/24 10:58:15;;;;;;;4.32;3.92;;;35.90;33.30;;;;;;4962366;28;20042;-71
2022/07/24 11:00:48;;;;;;;5.43;4.55;;;35.70;33.30;;;;;;4969978;28;20045;-71
2022/07/24 11:03:20;;;;;;;5.25;4.28;;;35.60;33.10;;;;;;4968710;28;20042;-71
2022/07/24 11:06:09;;;;;;;5.68;3.92;;;35.50;32.90;;;;;;4969731;28;20551;-72
2022/07/24 11:08:47;;;;;;;5.82;3.80;;;35.40;32.50;;;;;;4992540;28;20038;-71
2022/07/24 11:11:20;;;;;;;4.00;3.60;;;35.40;32.80;;;;;;4970779;28;20037;-71
2022/07/24 11:14:01;;;;;;;6.75;3.70;;;35.50;33.20;;;;;;4987496;28;20043;-71
2022/07/24 11:16:31;;;;;;;6.70;4.03;;;35.60;33.40;;;;;;4947760;28;20030;-71
2022/07/24 11:18:57;;;;;;;4.23;3.87;;;35.70;33.20;;;;;;4986948;28;20110;-72
2022/07/24 11:21:40;;;;;;;4.45;4.05;;;35.90;33.00;;;;;;4989189;28;20092;-71
2022/07/24 11:24:21;;;;;;;4.80;4.30;;;36.00;31.90;;;;;;4961190;28;20045;-71
2022/07/24 11:26:57;;;;;;;4.60;3.88;;;36.10;31.80;;;;;;4966272;28;20092;-71
2022/07/24 11:29:34;;;;;;;4.45;4.05;;;36.20;32.20;;;;;;4994597;28;20027;-71
2022/07/24 11:32:01;;;;;;;4.35;3.78;;;36.40;32.10;;;;;;4968350;28;20053;-71
2022/07/24 11:34:28;;;;;;;4.35;3.92;;;36.50;32.30;;;;;;4971551;28;20034;-72
2022/07/24 11:36:54;;;;;;;8.45;4.47;;;36.80;32.00;;;;;;4986625;28;20041;-71
2022/07/24 11:39:25;;;;;;;6.35;4.25;;;36.90;31.60;;;;;;4975260;28;20047;-71
2022/07/24 11:41:51;;;;;;;4.70;4.03;;;37.00;31.30;;;;;;4956564;28;20034;-72
2022/07/24 11:44:29;;;;;;;9.73;3.53;;;37.00;31.20;;;;;;4980194;28;20084;-70
2022/07/24 11:46:56;;;;;;;4.53;4.13;;;37.10;30.80;;;;;;4959194;28;20035;-71
2022/07/24 11:49:22;;;;;;;4.53;3.83;;;37.20;31.30;;;;;;4965359;28;20073;-71
2022/07/24 11:51:49;;;;;;;7.32;4.00;;;37.40;31.20;;;;;;4990728;28;20132;-71
2022/07/24 11:54:19;;;;;;;4.15;3.85;;;37.60;31.00;;;;;;4973070;28;20187;-71
2022/07/24 11:56:45;;;;;;;4.65;4.00;;;37.70;30.60;;;;;;4973411;28;20042;-71
2022/07/24 11:59:30;;;;;;;4.80;3.72;;;37.70;30.40;;;;;;4969049;28;20101;-71
2022/07/24 12:02:06;;;;;;;5.88;3.58;;;37.80;30.10;;;;;;4987146;28;20065;-72
2022/07/24 12:04:32;;;;;;;4.35;3.95;;;37.90;30.40;;;;;;4957033;28;23210;-71
2022/07/24 12:06:58;;;;;;;5.03;4.20;;;38.00;30.50;;;;;;4963231;28;20089;-71
2022/07/24 12:09:23;;;;;;;4.28;3.88;;;38.20;30.40;;;;;;4972531;28;20507;-71
2022/07/24 12:11:49;;;;;;;4.15;3.75;;;38.40;30.50;;;;;;4971631;28;20047;-73
2022/07/24 12:14:18;;;;;;;4.53;4.10;;;38.60;30.30;;;;;;4952444;28;20027;-72
2022/07/24 12:16:44;;;;;;;4.80;3.63;;;38.70;30.00;;;;;;4980903;28;20057;-71
2022/07/24 12:19:17;;;;;;;5.00;3.70;;;38.80;30.00;;;;;;4980631;28;20034;-72
2022/07/24 12:21:43;;;;;;;5.05;3.90;;;38.90;29.60;;;;;;4960601;28;20481;-72
2022/07/24 12:24:09;;;;;;;4.05;3.75;;;39.10;29.70;;;;;;4972727;28;20545;-72
2022/07/24 12:26:50;;;;;;;4.63;3.75;;;39.20;29.70;;;;;;4994360;28;20041;-71
2022/07/24 12:29:16;;;;;;;3.40;3.08;;;39.40;29.30;;;;;;4963218;28;20121;-72
2022/07/24 12:31:41;;;;;;;5.22;3.95;;;39.50;29.60;;;;;;4948386;28;20114;-71
2022/07/24 12:34:07;;;;;;;4.95;4.00;;;39.60;29.40;;;;;;4987077;28;20044;-71
2022/07/24 12:36:33;;;;;;;4.65;4.22;;;39.70;29.10;;;;;;4958934;28;20034;-71
2022/07/24 12:38:58;;;;;;;4.07;3.78;;;39.70;28.90;;;;;;4951425;28;20053;-71
2022/07/24 12:41:25;;;;;;;6.18;3.95;;;39.40;28.90;;;;;;4963542;28;20033;-72
2022/07/24 12:44:04;;;;;;;4.15;3.83;;;39.20;28.90;;;;;;4971766;28;20150;-72
2022/07/24 12:46:29;;;;;;;3.90;3.60;;;39.10;28.60;;;;;;4959320;28;20034;-71
2022/07/24 12:49:14;;;;;;;4.05;3.65;;;39.00;28.90;;;;;;4967154;28;20037;-71